sensor_id;sensor_type;location;lat;lon;timestamp;temperature;humidity
52849;DHT22;38714;53.180;5.812;2022-09-13T00:01:12;17.80;99.90
52849;DHT22;38714;53.180;5.812;2022-09-13T00:03:37;17.80;99.90
52849;DHT22;38714;53.180;5.812;2022-09-13T00:06:21;17.90;99.90
52849;DHT22;38714;53.180;5.812;2022-09-13T00:08:47;17.80;99.90
52849;DHT22;38714;53.180;5.812;2022-09-13T00:11:14;17.80;99.90
52849;DHT22;38714;53.180;5.812;2022-09-13T00:13:40;17.80;99.90
52849;DHT22;38714;53.180;5.812;2022-09-13T00:16:08;17.80;99.90
52849;DHT22;38714;53.180;5.812;2022-09-13T00:18:35;17.90;99.90
52849;DHT22;38714;53.180;5.812;2022-09-13T00:21:07;17.80;99.90
52849;DHT22;38714;53.180;5.812;2022-09-13T00:23:33;17.80;99.90
52849;DHT22;38714;53.180;5.812;2022-09-13T00:26:03;17.80;99.90
52849;DHT22;38714;53.180;5.812;2022-09-13T00:28:28;17.80;99.90
52849;DHT22;38714;53.180;5.812;2022-09-13T00:30:54;17.90;99.90
52849;DHT22;38714;53.180;5.812;2022-09-13T00:33:23;17.80;99.90
52849;DHT22;38714;53.180;5.812;2022-09-13T00:35:48;17.90;99.90
52849;DHT22;38714;53.180;5.812;2022-09-13T00:38:14;17.80;99.90
52849;DHT22;38714;53.180;5.812;2022-09-13T00:40:39;17.80;99.90
52849;DHT22;38714;53.180;5.812;2022-09-13T00:43:08;17.80;99.90
52849;DHT22;38714;53.180;5.812;2022-09-13T00:45:36;17.80;99.90
52849;DHT22;38714;53.180;5.812;2022-09-13T00:48:04;17.80;99.90
52849;DHT22;38714;53.180;5.812;2022-09-13T00:50:31;17.70;99.90
52849;DHT22;38714;53.180;5.812;2022-09-13T00:52:59;17.70;99.90
52849;DHT22;38714;53.180;5.812;2022-09-13T00:55:30;17.70;99.90
52849;DHT22;38714;53.180;5.812;2022-09-13T00:57:58;17.70;99.90
52849;DHT22;38714;53.180;5.812;2022-09-13T01:00:25;17.70;99.90
52849;DHT22;38714;53.180;5.812;2022-09-13T01:02:52;17.70;99.90
52849;DHT22;38714;53.180;5.812;2022-09-13T01:05:20;17.70;99.90
52849;DHT22;38714;53.180;5.812;2022-09-13T01:07:46;17.70;99.90
52849;DHT22;38714;53.180;5.812;2022-09-13T01:10:12;17.70;99.90
52849;DHT22;38714;53.180;5.812;2022-09-13T01:12:46;17.70;99.90
52849;DHT22;38714;53.180;5.812;2022-09-13T01:15:13;17.70;99.90
52849;DHT22;38714;53.180;5.812;2022-09-13T01:17:39;17.70;99.90
52849;DHT22;38714;53.180;5.812;2022-09-13T01:20:06;17.70;99.90
52849;DHT22;38714;53.180;5.812;2022-09-13T01:22:38;17.70;99.90
52849;DHT22;38714;53.180;5.812;2022-09-13T01:25:18;17.70;99.90
52849;DHT22;38714;53.180;5.812;2022-09-13T01:30:37;17.70;99.90
52849;DHT22;38714;53.180;5.812;2022-09-13T01:35:46;17.70;99.90
52849;DHT22;38714;53.180;5.812;2022-09-13T01:38:21;17.70;99.90
52849;DHT22;38714;53.180;5.812;2022-09-13T01:41:01;17.70;99.90
52849;DHT22;38714;53.180;5.812;2022-09-13T01:43:34;17.70;99.90
52849;DHT22;38714;53.180;5.812;2022-09-13T01:46:08;17.70;99.90
52849;DHT22;38714;53.180;5.812;2022-09-13T01:48:54;17.70;99.90
52849;DHT22;38714;53.180;5.812;2022-09-13T01:51:22;17.60;99.90
52849;DHT22;38714;53.180;5.812;2022-09-13T01:58:55;17.60;99.90
52849;DHT22;38714;53.180;5.812;2022-09-13T02:01:27;17.60;99.90
52849;DHT22;38714;53.180;5.812;2022-09-13T02:06:22;17.60;99.90
52849;DHT22;38714;53.180;5.812;2022-09-13T02:08:50;17.60;99.90
52849;DHT22;38714;53.180;5.812;2022-09-13T02:11:16;17.60;99.90
52849;DHT22;38714;53.180;5.812;2022-09-13T02:13:56;17.60;99.90
52849;DHT22;38714;53.180;5.812;2022-09-13T02:18:53;17.60;99.90
52849;DHT22;38714;53.180;5.812;2022-09-13T02:21:21;17.60;99.90
52849;DHT22;38714;53.180;5.812;2022-09-13T02:23:50;17.70;99.90
52849;DHT22;38714;53.180;5.812;2022-09-13T02:26:16;17.70;99.90
52849;DHT22;38714;53.180;5.812;2022-09-13T02:28:44;17.60;99.90
52849;DHT22;38714;53.180;5.812;2022-09-13T02:31:11;17.60;99.90
52849;DHT22;38714;53.180;5.812;2022-09-13T02:33:41;17.60;99.90
52849;DHT22;38714;53.180;5.812;2022-09-13T02:36:12;17.50;99.90
52849;DHT22;38714;53.180;5.812;2022-09-13T02:38:43;17.40;99.90
52849;DHT22;38714;53.180;5.812;2022-09-13T02:41:13;17.40;99.90
52849;DHT22;38714;53.180;5.812;2022-09-13T02:43:42;17.40;99.90
52849;DHT22;38714;53.180;5.812;2022-09-13T02:51:18;17.40;99.90
52849;DHT22;38714;53.180;5.812;2022-09-13T02:53:56;17.30;99.90
52849;DHT22;38714;53.180;5.812;2022-09-13T02:56:29;17.30;99.90
52849;DHT22;38714;53.180;5.812;2022-09-13T02:59:08;17.30;99.90
52849;DHT22;38714;53.180;5.812;2022-09-13T03:01:37;17.30;99.90
52849;DHT22;38714;53.180;5.812;2022-09-13T03:04:03;17.30;99.90
52849;DHT22;38714;53.180;5.812;2022-09-13T03:06:29;17.30;99.90
52849;DHT22;38714;53.180;5.812;2022-09-13T03:08:55;17.30;99.90
52849;DHT22;38714;53.180;5.812;2022-09-13T03:16:47;17.30;99.90
52849;DHT22;38714;53.180;5.812;2022-09-13T03:19:19;17.30;99.90
52849;DHT22;38714;53.180;5.812;2022-09-13T03:22:09;17.30;99.90
52849;DHT22;38714;53.180;5.812;2022-09-13T03:35:23;17.30;99.90
52849;DHT22;38714;53.180;5.812;2022-09-13T03:43:04;17.30;99.90
52849;DHT22;38714;53.180;5.812;2022-09-13T03:45:32;17.30;99.90
52849;DHT22;38714;53.180;5.812;2022-09-13T03:48:00;17.30;99.90
52849;DHT22;38714;53.180;5.812;2022-09-13T03:50:27;17.30;99.90
52849;DHT22;38714;53.180;5.812;2022-09-13T03:52:55;17.20;99.90
52849;DHT22;38714;53.180;5.812;2022-09-13T03:55:22;17.20;99.90
52849;DHT22;38714;53.180;5.812;2022-09-13T03:57:48;17.20;99.90
52849;DHT22;38714;53.180;5.812;2022-09-13T04:00:13;17.20;99.90
52849;DHT22;38714;53.180;5.812;2022-09-13T04:02:39;17.20;99.90
52849;DHT22;38714;53.180;5.812;2022-09-13T04:05:05;17.20;99.90
52849;DHT22;38714;53.180;5.812;2022-09-13T04:07:31;17.20;99.90
52849;DHT22;38714;53.180;5.812;2022-09-13T04:09:56;17.20;99.90
52849;DHT22;38714;53.180;5.812;2022-09-13T04:12:22;17.20;99.90
52849;DHT22;38714;53.180;5.812;2022-09-13T04:14:47;17.20;99.90
52849;DHT22;38714;53.180;5.812;2022-09-13T04:17:13;17.20;99.90
52849;DHT22;38714;53.180;5.812;2022-09-13T04:19:39;17.20;99.90
52849;DHT22;38714;53.180;5.812;2022-09-13T04:22:05;17.20;99.90
52849;DHT22;38714;53.180;5.812;2022-09-13T04:24:30;17.20;99.90
52849;DHT22;38714;53.180;5.812;2022-09-13T04:26:56;17.20;99.90
52849;DHT22;38714;53.180;5.812;2022-09-13T04:29:22;17.20;99.90
52849;DHT22;38714;53.180;5.812;2022-09-13T04:31:49;17.20;99.90
52849;DHT22;38714;53.180;5.812;2022-09-13T04:34:15;17.20;99.90
52849;DHT22;38714;53.180;5.812;2022-09-13T04:36:41;17.20;99.90
52849;DHT22;38714;53.180;5.812;2022-09-13T04:39:07;17.10;99.90
52849;DHT22;38714;53.180;5.812;2022-09-13T04:41:32;17.20;99.90
52849;DHT22;38714;53.180;5.812;2022-09-13T04:43:59;17.10;99.90
52849;DHT22;38714;53.180;5.812;2022-09-13T04:46:24;17.10;99.90
52849;DHT22;38714;53.180;5.812;2022-09-13T04:48:50;17.10;99.90
52849;DHT22;38714;53.180;5.812;2022-09-13T04:51:16;17.10;99.90
52849;DHT22;38714;53.180;5.812;2022-09-13T04:53:42;17.10;99.90
52849;DHT22;38714;53.180;5.812;2022-09-13T04:56:08;17.10;99.90
52849;DHT22;38714;53.180;5.812;2022-09-13T04:58:34;17.10;99.90
52849;DHT22;38714;53.180;5.812;2022-09-13T05:01:01;17.00;99.90
52849;DHT22;38714;53.180;5.812;2022-09-13T05:03:28;17.10;99.90
52849;DHT22;38714;53.180;5.812;2022-09-13T05:05:54;17.10;99.90
52849;DHT22;38714;53.180;5.812;2022-09-13T05:08:19;17.10;99.90
52849;DHT22;38714;53.180;5.812;2022-09-13T05:10:45;17.10;99.90
52849;DHT22;38714;53.180;5.812;2022-09-13T05:13:11;17.10;99.90
52849;DHT22;38714;53.180;5.812;2022-09-13T05:15:36;17.10;99.90
52849;DHT22;38714;53.180;5.812;2022-09-13T05:18:02;17.10;99.90
52849;DHT22;38714;53.180;5.812;2022-09-13T05:20:27;17.10;99.90
52849;DHT22;38714;53.180;5.812;2022-09-13T05:22:54;17.10;99.90
52849;DHT22;38714;53.180;5.812;2022-09-13T05:25:19;17.10;99.90
52849;DHT22;38714;53.180;5.812;2022-09-13T05:27:45;17.10;99.90
52849;DHT22;38714;53.180;5.812;2022-09-13T05:30:10;17.10;99.90
52849;DHT22;38714;53.180;5.812;2022-09-13T05:32:36;17.10;99.90
52849;DHT22;38714;53.180;5.812;2022-09-13T05:35:02;17.10;99.90
52849;DHT22;38714;53.180;5.812;2022-09-13T05:37:27;17.10;99.90
52849;DHT22;38714;53.180;5.812;2022-09-13T05:39:53;17.10;99.90
52849;DHT22;38714;53.180;5.812;2022-09-13T05:42:18;17.10;99.90
52849;DHT22;38714;53.180;5.812;2022-09-13T05:44:44;17.20;99.90
52849;DHT22;38714;53.180;5.812;2022-09-13T05:47:09;17.10;99.90
52849;DHT22;38714;53.180;5.812;2022-09-13T05:49:37;17.10;99.90
52849;DHT22;38714;53.180;5.812;2022-09-13T05:52:03;17.10;99.90
52849;DHT22;38714;53.180;5.812;2022-09-13T05:54:29;17.10;99.90
52849;DHT22;38714;53.180;5.812;2022-09-13T05:56:55;17.10;99.90
52849;DHT22;38714;53.180;5.812;2022-09-13T05:59:21;17.10;99.90
52849;DHT22;38714;53.180;5.812;2022-09-13T06:01:47;17.10;99.90
52849;DHT22;38714;53.180;5.812;2022-09-13T06:04:13;17.10;99.90
52849;DHT22;38714;53.180;5.812;2022-09-13T06:06:38;17.10;99.90
52849;DHT22;38714;53.180;5.812;2022-09-13T06:09:04;17.00;99.90
52849;DHT22;38714;53.180;5.812;2022-09-13T06:11:32;17.00;99.90
52849;DHT22;38714;53.180;5.812;2022-09-13T06:13:58;16.90;99.90
52849;DHT22;38714;53.180;5.812;2022-09-13T06:16:24;16.90;99.90
52849;DHT22;38714;53.180;5.812;2022-09-13T06:18:49;16.90;99.90
52849;DHT22;38714;53.180;5.812;2022-09-13T06:21:16;16.90;99.90
52849;DHT22;38714;53.180;5.812;2022-09-13T06:23:49;16.90;99.90
52849;DHT22;38714;53.180;5.812;2022-09-13T06:26:17;16.90;99.90
52849;DHT22;38714;53.180;5.812;2022-09-13T06:28:45;16.90;99.90
52849;DHT22;38714;53.180;5.812;2022-09-13T06:31:13;16.90;99.90
52849;DHT22;38714;53.180;5.812;2022-09-13T06:33:39;16.80;99.90
52849;DHT22;38714;53.180;5.812;2022-09-13T06:36:06;16.90;99.90
52849;DHT22;38714;53.180;5.812;2022-09-13T06:38:31;16.90;99.90
52849;DHT22;38714;53.180;5.812;2022-09-13T06:41:04;16.90;99.90
52849;DHT22;38714;53.180;5.812;2022-09-13T06:43:30;16.90;99.90
52849;DHT22;38714;53.180;5.812;2022-09-13T06:46:00;16.80;99.90
52849;DHT22;38714;53.180;5.812;2022-09-13T06:48:26;16.90;99.90
52849;DHT22;38714;53.180;5.812;2022-09-13T06:50:52;16.90;99.90
52849;DHT22;38714;53.180;5.812;2022-09-13T06:53:17;16.80;99.90
52849;DHT22;38714;53.180;5.812;2022-09-13T06:55:42;16.90;99.90
52849;DHT22;38714;53.180;5.812;2022-09-13T06:58:08;16.90;99.90
52849;DHT22;38714;53.180;5.812;2022-09-13T07:00:33;16.90;99.90
52849;DHT22;38714;53.180;5.812;2022-09-13T07:02:59;17.00;99.90
52849;DHT22;38714;53.180;5.812;2022-09-13T07:05:24;17.00;99.90
52849;DHT22;38714;53.180;5.812;2022-09-13T07:07:50;17.00;99.90
52849;DHT22;38714;53.180;5.812;2022-09-13T07:10:15;17.00;99.90
52849;DHT22;38714;53.180;5.812;2022-09-13T07:12:41;17.00;99.90
52849;DHT22;38714;53.180;5.812;2022-09-13T07:15:07;17.10;99.90
52849;DHT22;38714;53.180;5.812;2022-09-13T07:17:33;17.10;99.90
52849;DHT22;38714;53.180;5.812;2022-09-13T07:19:58;17.10;99.90
52849;DHT22;38714;53.180;5.812;2022-09-13T07:22:23;17.20;99.90
52849;DHT22;38714;53.180;5.812;2022-09-13T07:24:52;17.20;99.90
52849;DHT22;38714;53.180;5.812;2022-09-13T07:27:17;17.20;99.90
52849;DHT22;38714;53.180;5.812;2022-09-13T07:29:43;17.20;99.90
52849;DHT22;38714;53.180;5.812;2022-09-13T07:32:08;17.20;99.90
52849;DHT22;38714;53.180;5.812;2022-09-13T07:34:34;17.20;99.90
52849;DHT22;38714;53.180;5.812;2022-09-13T07:37:00;17.20;99.90
52849;DHT22;38714;53.180;5.812;2022-09-13T07:39:25;17.20;99.90
52849;DHT22;38714;53.180;5.812;2022-09-13T07:41:51;17.20;99.90
52849;DHT22;38714;53.180;5.812;2022-09-13T07:44:17;17.30;99.90
52849;DHT22;38714;53.180;5.812;2022-09-13T07:46:43;17.30;99.90
52849;DHT22;38714;53.180;5.812;2022-09-13T07:49:10;17.30;99.90
52849;DHT22;38714;53.180;5.812;2022-09-13T07:51:36;17.30;99.90
52849;DHT22;38714;53.180;5.812;2022-09-13T07:54:04;17.30;99.90
52849;DHT22;38714;53.180;5.812;2022-09-13T07:56:31;17.30;99.90
52849;DHT22;38714;53.180;5.812;2022-09-13T07:58:57;17.30;99.90
52849;DHT22;38714;53.180;5.812;2022-09-13T08:01:29;17.30;99.90
52849;DHT22;38714;53.180;5.812;2022-09-13T08:03:58;17.30;99.90
52849;DHT22;38714;53.180;5.812;2022-09-13T08:06:25;17.30;99.90
52849;DHT22;38714;53.180;5.812;2022-09-13T08:08:51;17.30;99.90
52849;DHT22;38714;53.180;5.812;2022-09-13T08:11:20;17.30;99.90
52849;DHT22;38714;53.180;5.812;2022-09-13T08:13:46;17.30;99.90
52849;DHT22;38714;53.180;5.812;2022-09-13T08:16:12;17.30;99.90
52849;DHT22;38714;53.180;5.812;2022-09-13T08:18:45;17.30;99.90
52849;DHT22;38714;53.180;5.812;2022-09-13T08:21:11;17.30;99.90
52849;DHT22;38714;53.180;5.812;2022-09-13T08:23:37;17.40;99.90
52849;DHT22;38714;53.180;5.812;2022-09-13T08:26:02;17.40;99.90
52849;DHT22;38714;53.180;5.812;2022-09-13T08:28:28;17.40;99.90
52849;DHT22;38714;53.180;5.812;2022-09-13T08:31:01;17.40;99.90
52849;DHT22;38714;53.180;5.812;2022-09-13T08:33:26;17.40;99.90
52849;DHT22;38714;53.180;5.812;2022-09-13T08:35:52;17.40;99.90
52849;DHT22;38714;53.180;5.812;2022-09-13T08:38:18;17.40;99.90
52849;DHT22;38714;53.180;5.812;2022-09-13T08:40:44;17.40;99.90
52849;DHT22;38714;53.180;5.812;2022-09-13T08:46:44;17.40;99.90
52849;DHT22;38714;53.180;5.812;2022-09-13T08:48:40;17.40;99.90
52849;DHT22;38714;53.180;5.812;2022-09-13T08:51:08;17.40;99.90
52849;DHT22;38714;53.180;5.812;2022-09-13T08:53:42;17.50;99.90
52849;DHT22;38714;53.180;5.812;2022-09-13T08:56:13;17.50;99.90
52849;DHT22;38714;53.180;5.812;2022-09-13T09:01:21;17.50;99.90
52849;DHT22;38714;53.180;5.812;2022-09-13T09:03:55;17.50;99.90
52849;DHT22;38714;53.180;5.812;2022-09-13T09:06:22;17.50;99.90
52849;DHT22;38714;53.180;5.812;2022-09-13T09:08:49;17.60;99.90
52849;DHT22;38714;53.180;5.812;2022-09-13T09:11:27;17.60;99.90
52849;DHT22;38714;53.180;5.812;2022-09-13T09:16:40;17.70;99.90
52849;DHT22;38714;53.180;5.812;2022-09-13T09:19:32;17.70;99.90
52849;DHT22;38714;53.180;5.812;2022-09-13T09:22:00;17.80;99.90
52849;DHT22;38714;53.180;5.812;2022-09-13T09:24:27;17.80;99.90
52849;DHT22;38714;53.180;5.812;2022-09-13T09:26:56;17.80;99.90
52849;DHT22;38714;53.180;5.812;2022-09-13T09:29:23;17.70;99.90
52849;DHT22;38714;53.180;5.812;2022-09-13T09:31:53;17.70;99.90
52849;DHT22;38714;53.180;5.812;2022-09-13T09:36:58;17.60;99.90
52849;DHT22;38714;53.180;5.812;2022-09-13T09:39:26;17.60;99.90
52849;DHT22;38714;53.180;5.812;2022-09-13T09:41:54;17.60;99.90
52849;DHT22;38714;53.180;5.812;2022-09-13T09:44:22;17.70;99.90
52849;DHT22;38714;53.180;5.812;2022-09-13T09:47:06;17.70;99.90
52849;DHT22;38714;53.180;5.812;2022-09-13T09:49:36;17.80;99.90
52849;DHT22;38714;53.180;5.812;2022-09-13T09:52:24;17.80;99.90
52849;DHT22;38714;53.180;5.812;2022-09-13T09:54:53;17.80;99.90
52849;DHT22;38714;53.180;5.812;2022-09-13T09:57:33;17.80;99.90
52849;DHT22;38714;53.180;5.812;2022-09-13T10:00:09;17.90;99.90
52849;DHT22;38714;53.180;5.812;2022-09-13T10:02:35;17.90;99.90
52849;DHT22;38714;53.180;5.812;2022-09-13T10:05:03;17.80;99.90
52849;DHT22;38714;53.180;5.812;2022-09-13T10:07:30;17.80;99.90
52849;DHT22;38714;53.180;5.812;2022-09-13T10:10:57;17.80;99.90
52849;DHT22;38714;53.180;5.812;2022-09-13T10:12:53;17.80;99.90
52849;DHT22;38714;53.180;5.812;2022-09-13T10:15:21;17.80;99.90
52849;DHT22;38714;53.180;5.812;2022-09-13T10:18:00;17.90;99.90
52849;DHT22;38714;53.180;5.812;2022-09-13T10:20:27;18.00;99.90
52849;DHT22;38714;53.180;5.812;2022-09-13T10:25:37;18.00;99.90
52849;DHT22;38714;53.180;5.812;2022-09-13T10:28:03;18.00;99.90
52849;DHT22;38714;53.180;5.812;2022-09-13T10:30:44;18.00;99.90
52849;DHT22;38714;53.180;5.812;2022-09-13T10:33:23;18.00;99.90
52849;DHT22;38714;53.180;5.812;2022-09-13T10:35:51;18.10;99.90
52849;DHT22;38714;53.180;5.812;2022-09-13T10:38:28;18.10;99.90
52849;DHT22;38714;53.180;5.812;2022-09-13T10:40:54;18.10;99.90
52849;DHT22;38714;53.180;5.812;2022-09-13T10:43:20;18.00;99.90
52849;DHT22;38714;53.180;5.812;2022-09-13T10:45:50;18.00;99.90
52849;DHT22;38714;53.180;5.812;2022-09-13T10:48:16;18.10;99.90
52849;DHT22;38714;53.180;5.812;2022-09-13T10:55:58;18.20;99.90
52849;DHT22;38714;53.180;5.812;2022-09-13T10:58:23;18.20;99.90
52849;DHT22;38714;53.180;5.812;2022-09-13T11:00:55;18.20;99.90
52849;DHT22;38714;53.180;5.812;2022-09-13T11:08:39;18.40;99.90
52849;DHT22;38714;53.180;5.812;2022-09-13T11:26:21;18.30;99.90
52849;DHT22;38714;53.180;5.812;2022-09-13T11:38:57;18.40;99.90
52849;DHT22;38714;53.180;5.812;2022-09-13T11:41:45;18.40;99.90
52849;DHT22;38714;53.180;5.812;2022-09-13T11:57:37;18.30;99.90
52849;DHT22;38714;53.180;5.812;2022-09-13T12:00:05;18.20;99.90
52849;DHT22;38714;53.180;5.812;2022-09-13T12:05:20;18.20;99.90
52849;DHT22;38714;53.180;5.812;2022-09-13T12:13:26;18.30;99.90
52849;DHT22;38714;53.180;5.812;2022-09-13T12:15:58;18.30;99.90
52849;DHT22;38714;53.180;5.812;2022-09-13T12:18:25;18.30;99.90
52849;DHT22;38714;53.180;5.812;2022-09-13T12:20:53;18.40;99.90
52849;DHT22;38714;53.180;5.812;2022-09-13T12:23:22;18.40;99.90
52849;DHT22;38714;53.180;5.812;2022-09-13T12:25:54;18.40;99.90
52849;DHT22;38714;53.180;5.812;2022-09-13T12:28:22;18.40;99.90
52849;DHT22;38714;53.180;5.812;2022-09-13T12:30:51;18.30;99.90
52849;DHT22;38714;53.180;5.812;2022-09-13T12:33:17;18.30;99.90
52849;DHT22;38714;53.180;5.812;2022-09-13T12:35:49;18.30;99.90
52849;DHT22;38714;53.180;5.812;2022-09-13T12:38:24;18.30;99.90
52849;DHT22;38714;53.180;5.812;2022-09-13T12:43:44;18.40;99.90
52849;DHT22;38714;53.180;5.812;2022-09-13T12:49:03;18.30;99.90
52849;DHT22;38714;53.180;5.812;2022-09-13T12:56:53;18.40;99.90
52849;DHT22;38714;53.180;5.812;2022-09-13T13:01:51;18.50;99.90
52849;DHT22;38714;53.180;5.812;2022-09-13T13:04:24;18.50;99.90
52849;DHT22;38714;53.180;5.812;2022-09-13T13:07:04;18.50;99.90
52849;DHT22;38714;53.180;5.812;2022-09-13T13:12:09;18.60;99.90
52849;DHT22;38714;53.180;5.812;2022-09-13T13:19:45;18.50;99.90
52849;DHT22;38714;53.180;5.812;2022-09-13T13:25:31;18.60;99.90
52849;DHT22;38714;53.180;5.812;2022-09-13T13:27:57;18.60;99.90
52849;DHT22;38714;53.180;5.812;2022-09-13T13:30:33;18.60;99.90
52849;DHT22;38714;53.180;5.812;2022-09-13T13:33:11;18.60;99.90
52849;DHT22;38714;53.180;5.812;2022-09-13T13:35:37;18.60;99.90
52849;DHT22;38714;53.180;5.812;2022-09-13T13:40:47;18.60;99.90
52849;DHT22;38714;53.180;5.812;2022-09-13T13:43:33;18.60;99.90
52849;DHT22;38714;53.180;5.812;2022-09-13T13:48:40;18.60;99.90
52849;DHT22;38714;53.180;5.812;2022-09-13T13:53:37;18.60;99.90
52849;DHT22;38714;53.180;5.812;2022-09-13T13:56:07;18.60;99.90
52849;DHT22;38714;53.180;5.812;2022-09-13T13:58:44;18.60;99.90
52849;DHT22;38714;53.180;5.812;2022-09-13T14:01:13;18.60;99.90
52849;DHT22;38714;53.180;5.812;2022-09-13T14:03:49;18.50;99.90
52849;DHT22;38714;53.180;5.812;2022-09-13T14:09:13;18.50;99.90
52849;DHT22;38714;53.180;5.812;2022-09-13T14:11:57;18.50;99.90
52849;DHT22;38714;53.180;5.812;2022-09-13T14:14:35;18.50;99.90
52849;DHT22;38714;53.180;5.812;2022-09-13T14:19:46;18.50;99.90
52849;DHT22;38714;53.180;5.812;2022-09-13T14:22:14;18.50;99.90
52849;DHT22;38714;53.180;5.812;2022-09-13T14:24:47;18.50;99.90
52849;DHT22;38714;53.180;5.812;2022-09-13T14:27:19;18.50;99.90
52849;DHT22;38714;53.180;5.812;2022-09-13T14:29:50;18.50;99.90
52849;DHT22;38714;53.180;5.812;2022-09-13T14:32:18;18.50;99.90
52849;DHT22;38714;53.180;5.812;2022-09-13T14:34:51;18.50;99.90
52849;DHT22;38714;53.180;5.812;2022-09-13T14:37:18;18.50;99.90
52849;DHT22;38714;53.180;5.812;2022-09-13T14:39:56;18.50;99.90
52849;DHT22;38714;53.180;5.812;2022-09-13T14:42:22;18.50;99.90
52849;DHT22;38714;53.180;5.812;2022-09-13T14:44:50;18.50;99.90
52849;DHT22;38714;53.180;5.812;2022-09-13T14:47:21;18.50;99.90
52849;DHT22;38714;53.180;5.812;2022-09-13T14:49:50;18.50;99.90
52849;DHT22;38714;53.180;5.812;2022-09-13T14:52:27;18.50;99.90
52849;DHT22;38714;53.180;5.812;2022-09-13T14:54:55;18.50;99.90
52849;DHT22;38714;53.180;5.812;2022-09-13T14:57:24;18.50;99.90
52849;DHT22;38714;53.180;5.812;2022-09-13T14:59:54;18.50;99.90
52849;DHT22;38714;53.180;5.812;2022-09-13T15:02:30;18.50;99.90
52849;DHT22;38714;53.180;5.812;2022-09-13T15:04:56;18.40;99.90
52849;DHT22;38714;53.180;5.812;2022-09-13T15:07:29;18.40;99.90
52849;DHT22;38714;53.180;5.812;2022-09-13T15:09:56;18.40;99.90
52849;DHT22;38714;53.180;5.812;2022-09-13T15:12:24;18.40;99.90
52849;DHT22;38714;53.180;5.812;2022-09-13T15:15:12;18.30;99.90
52849;DHT22;38714;53.180;5.812;2022-09-13T15:17:55;18.30;99.90
52849;DHT22;38714;53.180;5.812;2022-09-13T15:20:21;18.20;99.90
52849;DHT22;38714;53.180;5.812;2022-09-13T15:22:47;18.20;99.90
52849;DHT22;38714;53.180;5.812;2022-09-13T15:25:21;18.20;99.90
52849;DHT22;38714;53.180;5.812;2022-09-13T15:27:48;18.20;99.90
52849;DHT22;38714;53.180;5.812;2022-09-13T15:30:24;18.20;99.90
52849;DHT22;38714;53.180;5.812;2022-09-13T15:33:02;18.30;99.90
52849;DHT22;38714;53.180;5.812;2022-09-13T15:35:30;18.30;99.90
52849;DHT22;38714;53.180;5.812;2022-09-13T15:38:06;18.40;99.90
52849;DHT22;38714;53.180;5.812;2022-09-13T15:40:43;18.40;99.90
52849;DHT22;38714;53.180;5.812;2022-09-13T15:43:09;18.40;99.90
52849;DHT22;38714;53.180;5.812;2022-09-13T15:45:34;18.40;99.90
52849;DHT22;38714;53.180;5.812;2022-09-13T15:48:00;18.30;99.90
52849;DHT22;38714;53.180;5.812;2022-09-13T15:50:27;18.30;99.90
52849;DHT22;38714;53.180;5.812;2022-09-13T15:52:55;18.30;99.90
52849;DHT22;38714;53.180;5.812;2022-09-13T15:55:20;18.30;99.90
52849;DHT22;38714;53.180;5.812;2022-09-13T15:57:46;18.30;99.90
52849;DHT22;38714;53.180;5.812;2022-09-13T16:00:16;18.40;99.90
52849;DHT22;38714;53.180;5.812;2022-09-13T16:02:42;18.40;99.90
52849;DHT22;38714;53.180;5.812;2022-09-13T16:05:08;18.30;99.90
52849;DHT22;38714;53.180;5.812;2022-09-13T16:07:33;18.30;99.90
52849;DHT22;38714;53.180;5.812;2022-09-13T16:09:59;18.30;99.90
52849;DHT22;38714;53.180;5.812;2022-09-13T16:12:25;18.30;99.90
52849;DHT22;38714;53.180;5.812;2022-09-13T16:14:52;18.20;99.90
52849;DHT22;38714;53.180;5.812;2022-09-13T16:17:23;18.20;99.90
52849;DHT22;38714;53.180;5.812;2022-09-13T16:19:49;18.20;99.90
52849;DHT22;38714;53.180;5.812;2022-09-13T16:22:15;18.20;99.90
52849;DHT22;38714;53.180;5.812;2022-09-13T16:24:40;18.10;99.90
52849;DHT22;38714;53.180;5.812;2022-09-13T16:27:06;18.10;99.90
52849;DHT22;38714;53.180;5.812;2022-09-13T16:29:32;18.10;99.90
52849;DHT22;38714;53.180;5.812;2022-09-13T16:31:57;18.10;99.90
52849;DHT22;38714;53.180;5.812;2022-09-13T16:34:24;18.10;99.90
52849;DHT22;38714;53.180;5.812;2022-09-13T16:36:50;18.10;99.90
52849;DHT22;38714;53.180;5.812;2022-09-13T16:39:16;18.10;99.90
52849;DHT22;38714;53.180;5.812;2022-09-13T16:41:41;18.00;99.90
52849;DHT22;38714;53.180;5.812;2022-09-13T16:44:07;18.00;99.90
52849;DHT22;38714;53.180;5.812;2022-09-13T16:46:33;17.90;99.90
52849;DHT22;38714;53.180;5.812;2022-09-13T16:48:58;18.00;99.90
52849;DHT22;38714;53.180;5.812;2022-09-13T16:51:24;17.90;99.90
52849;DHT22;38714;53.180;5.812;2022-09-13T16:53:50;17.90;99.90
52849;DHT22;38714;53.180;5.812;2022-09-13T16:56:17;17.80;99.90
52849;DHT22;38714;53.180;5.812;2022-09-13T16:58:43;17.80;99.90
52849;DHT22;38714;53.180;5.812;2022-09-13T17:01:11;17.80;99.90
52849;DHT22;38714;53.180;5.812;2022-09-13T17:03:37;17.70;99.90
52849;DHT22;38714;53.180;5.812;2022-09-13T17:06:04;17.70;99.90
52849;DHT22;38714;53.180;5.812;2022-09-13T17:08:30;17.70;99.90
52849;DHT22;38714;53.180;5.812;2022-09-13T17:10:56;17.60;99.90
52849;DHT22;38714;53.180;5.812;2022-09-13T17:13:21;17.60;99.90
52849;DHT22;38714;53.180;5.812;2022-09-13T17:15:48;17.60;99.90
52849;DHT22;38714;53.180;5.812;2022-09-13T17:18:14;17.50;99.90
52849;DHT22;38714;53.180;5.812;2022-09-13T17:20:44;17.50;99.90
52849;DHT22;38714;53.180;5.812;2022-09-13T17:23:09;17.50;99.90
52849;DHT22;38714;53.180;5.812;2022-09-13T17:25:35;17.50;99.90
52849;DHT22;38714;53.180;5.812;2022-09-13T17:28:00;17.40;99.90
52849;DHT22;38714;53.180;5.812;2022-09-13T17:30:26;17.40;99.90
52849;DHT22;38714;53.180;5.812;2022-09-13T17:32:51;17.40;99.90
52849;DHT22;38714;53.180;5.812;2022-09-13T17:35:17;17.40;99.90
52849;DHT22;38714;53.180;5.812;2022-09-13T17:37:42;17.40;99.90
52849;DHT22;38714;53.180;5.812;2022-09-13T17:40:08;17.40;99.90
52849;DHT22;38714;53.180;5.812;2022-09-13T17:42:33;17.30;99.90
52849;DHT22;38714;53.180;5.812;2022-09-13T17:44:59;17.30;99.90
52849;DHT22;38714;53.180;5.812;2022-09-13T17:47:24;17.30;99.90
52849;DHT22;38714;53.180;5.812;2022-09-13T17:49:50;17.20;99.90
52849;DHT22;38714;53.180;5.812;2022-09-13T17:52:15;17.20;99.90
52849;DHT22;38714;53.180;5.812;2022-09-13T17:54:41;17.20;99.90
52849;DHT22;38714;53.180;5.812;2022-09-13T17:57:07;17.20;99.90
52849;DHT22;38714;53.180;5.812;2022-09-13T17:59:32;17.20;99.90
52849;DHT22;38714;53.180;5.812;2022-09-13T18:01:58;17.20;99.90
52849;DHT22;38714;53.180;5.812;2022-09-13T18:04:25;17.10;99.90
52849;DHT22;38714;53.180;5.812;2022-09-13T18:06:51;17.10;99.90
52849;DHT22;38714;53.180;5.812;2022-09-13T18:09:17;17.10;99.90